sensor_id;sensor_type;location;lat;lon;timestamp;P1;durP1;ratioP1;P2;durP2;ratioP2
21843;SDS011;11084;52.482;9.108;2023-02-08T00:00:46;14.13;;;6.80;;
21843;SDS011;11084;52.482;9.108;2023-02-08T00:03:12;10.90;;;6.27;;
21843;SDS011;11084;52.482;9.108;2023-02-08T00:05:39;11.50;;;5.97;;
21843;SDS011;11084;52.482;9.108;2023-02-08T00:08:05;13.43;;;7.17;;
21843;SDS011;11084;52.482;9.108;2023-02-08T00:10:32;12.60;;;5.83;;
21843;SDS011;11084;52.482;9.108;2023-02-08T00:12:59;16.07;;;6.70;;
21843;SDS011;11084;52.482;9.108;2023-02-08T00:15:25;18.83;;;7.07;;
21843;SDS011;11084;52.482;9.108;2023-02-08T00:17:51;14.57;;;6.53;;
21843;SDS011;11084;52.482;9.108;2023-02-08T00:20:17;15.43;;;6.83;;
21843;SDS011;11084;52.482;9.108;2023-02-08T00:22:43;14.07;;;6.70;;
21843;SDS011;11084;52.482;9.108;2023-02-08T00:25:09;14.03;;;5.70;;
21843;SDS011;11084;52.482;9.108;2023-02-08T00:27:36;17.23;;;6.27;;
21843;SDS011;11084;52.482;9.108;2023-02-08T00:30:03;10.83;;;6.00;;
21843;SDS011;11084;52.482;9.108;2023-02-08T00:32:30;16.33;;;8.13;;
21843;SDS011;11084;52.482;9.108;2023-02-08T00:34:55;15.77;;;6.03;;
21843;SDS011;11084;52.482;9.108;2023-02-08T00:37:21;13.60;;;7.60;;
21843;SDS011;11084;52.482;9.108;2023-02-08T00:39:49;10.00;;;5.43;;
21843;SDS011;11084;52.482;9.108;2023-02-08T00:42:15;17.93;;;8.23;;
21843;SDS011;11084;52.482;9.108;2023-02-08T00:44:41;14.53;;;6.17;;
21843;SDS011;11084;52.482;9.108;2023-02-08T00:47:07;15.33;;;7.30;;
21843;SDS011;11084;52.482;9.108;2023-02-08T00:49:33;18.57;;;7.27;;
21843;SDS011;11084;52.482;9.108;2023-02-08T00:51:59;14.83;;;6.93;;
21843;SDS011;11084;52.482;9.108;2023-02-08T00:54:25;12.13;;;6.40;;
21843;SDS011;11084;52.482;9.108;2023-02-08T00:56:51;12.23;;;6.13;;
21843;SDS011;11084;52.482;9.108;2023-02-08T00:59:17;15.53;;;7.00;;
21843;SDS011;11084;52.482;9.108;2023-02-08T01:01:43;16.63;;;6.37;;
21843;SDS011;11084;52.482;9.108;2023-02-08T01:04:09;12.53;;;6.40;;
21843;SDS011;11084;52.482;9.108;2023-02-08T01:06:35;16.23;;;6.63;;
21843;SDS011;11084;52.482;9.108;2023-02-08T01:09:01;9.93;;;5.47;;
21843;SDS011;11084;52.482;9.108;2023-02-08T01:11:28;12.40;;;6.13;;
21843;SDS011;11084;52.482;9.108;2023-02-08T01:13:54;9.70;;;5.40;;
21843;SDS011;11084;52.482;9.108;2023-02-08T01:16:29;17.30;;;6.97;;
21843;SDS011;11084;52.482;9.108;2023-02-08T01:18:59;12.47;;;5.87;;
21843;SDS011;11084;52.482;9.108;2023-02-08T01:21:37;9.60;;;5.37;;
21843;SDS011;11084;52.482;9.108;2023-02-08T01:24:05;13.17;;;6.50;;
21843;SDS011;11084;52.482;9.108;2023-02-08T01:26:31;14.50;;;5.93;;
21843;SDS011;11084;52.482;9.108;2023-02-08T01:28:58;13.37;;;5.77;;
21843;SDS011;11084;52.482;9.108;2023-02-08T01:31:25;11.67;;;6.03;;
21843;SDS011;11084;52.482;9.108;2023-02-08T01:33:55;11.37;;;6.47;;
21843;SDS011;11084;52.482;9.108;2023-02-08T01:36:22;8.40;;;5.20;;
21843;SDS011;11084;52.482;9.108;2023-02-08T01:38:49;11.97;;;5.80;;
21843;SDS011;11084;52.482;9.108;2023-02-08T01:41:20;12.00;;;5.90;;
21843;SDS011;11084;52.482;9.108;2023-02-08T01:45:14;17.60;;;6.00;;
21843;SDS011;11084;52.482;9.108;2023-02-08T01:47:30;14.30;;;6.13;;
21843;SDS011;11084;52.482;9.108;2023-02-08T01:49:56;12.17;;;6.03;;
21843;SDS011;11084;52.482;9.108;2023-02-08T01:52:23;13.77;;;5.90;;
21843;SDS011;11084;52.482;9.108;2023-02-08T01:54:53;16.73;;;6.70;;
21843;SDS011;11084;52.482;9.108;2023-02-08T01:57:27;13.63;;;6.27;;
21843;SDS011;11084;52.482;9.108;2023-02-08T01:59:58;24.83;;;7.33;;
21843;SDS011;11084;52.482;9.108;2023-02-08T02:02:39;40.60;;;6.67;;
21843;SDS011;11084;52.482;9.108;2023-02-08T02:05:06;8.63;;;5.07;;
21843;SDS011;11084;52.482;9.108;2023-02-08T02:07:33;13.03;;;6.00;;
21843;SDS011;11084;52.482;9.108;2023-02-08T02:10:02;11.57;;;5.80;;
21843;SDS011;11084;52.482;9.108;2023-02-08T02:12:41;12.60;;;5.83;;
21843;SDS011;11084;52.482;9.108;2023-02-08T02:15:08;15.73;;;5.97;;
21843;SDS011;11084;52.482;9.108;2023-02-08T02:17:35;14.30;;;5.30;;
21843;SDS011;11084;52.482;9.108;2023-02-08T02:20:11;11.83;;;6.13;;
21843;SDS011;11084;52.482;9.108;2023-02-08T02:28:26;9.93;;;4.93;;
21843;SDS011;11084;52.482;9.108;2023-02-08T02:51:28;14.87;;;6.27;;
21843;SDS011;11084;52.482;9.108;2023-02-08T02:54:16;14.87;;;5.67;;
21843;SDS011;11084;52.482;9.108;2023-02-08T02:56:53;8.80;;;4.27;;
21843;SDS011;11084;52.482;9.108;2023-02-08T02:59:24;12.03;;;5.57;;
21843;SDS011;11084;52.482;9.108;2023-02-08T03:01:52;17.83;;;5.57;;
21843;SDS011;11084;52.482;9.108;2023-02-08T03:10:03;9.60;;;5.30;;
21843;SDS011;11084;52.482;9.108;2023-02-08T03:12:57;13.00;;;5.60;;
21843;SDS011;11084;52.482;9.108;2023-02-08T03:16:05;11.07;;;6.10;;
21843;SDS011;11084;52.482;9.108;2023-02-08T03:22:11;12.63;;;4.93;;
21843;SDS011;11084;52.482;9.108;2023-02-08T03:24:48;8.67;;;5.23;;
21843;SDS011;11084;52.482;9.108;2023-02-08T03:32:42;14.80;;;5.83;;
21843;SDS011;11084;52.482;9.108;2023-02-08T03:40:30;9.03;;;5.33;;
21843;SDS011;11084;52.482;9.108;2023-02-08T03:43:10;12.97;;;6.13;;
21843;SDS011;11084;52.482;9.108;2023-02-08T03:48:48;10.77;;;5.23;;
21843;SDS011;11084;52.482;9.108;2023-02-08T03:51:23;11.07;;;5.17;;
21843;SDS011;11084;52.482;9.108;2023-02-08T03:53:52;10.83;;;5.17;;
21843;SDS011;11084;52.482;9.108;2023-02-08T03:56:37;10.53;;;5.17;;
21843;SDS011;11084;52.482;9.108;2023-02-08T03:59:12;13.33;;;6.10;;
21843;SDS011;11084;52.482;9.108;2023-02-08T04:01:45;9.77;;;5.67;;
21843;SDS011;11084;52.482;9.108;2023-02-08T04:04:18;14.40;;;5.87;;
21843;SDS011;11084;52.482;9.108;2023-02-08T04:06:45;7.43;;;3.70;;
21843;SDS011;11084;52.482;9.108;2023-02-08T04:09:11;11.43;;;5.60;;
21843;SDS011;11084;52.482;9.108;2023-02-08T04:11:37;14.33;;;5.43;;
21843;SDS011;11084;52.482;9.108;2023-02-08T04:14:03;8.90;;;5.20;;
21843;SDS011;11084;52.482;9.108;2023-02-08T04:16:29;11.10;;;4.83;;
21843;SDS011;11084;52.482;9.108;2023-02-08T04:18:55;8.90;;;4.87;;
21843;SDS011;11084;52.482;9.108;2023-02-08T04:21:21;11.73;;;5.17;;
21843;SDS011;11084;52.482;9.108;2023-02-08T04:23:47;11.37;;;5.03;;
21843;SDS011;11084;52.482;9.108;2023-02-08T04:26:13;10.20;;;5.90;;
21843;SDS011;11084;52.482;9.108;2023-02-08T04:28:39;9.00;;;4.67;;
21843;SDS011;11084;52.482;9.108;2023-02-08T04:31:04;7.87;;;4.23;;
21843;SDS011;11084;52.482;9.108;2023-02-08T04:33:30;10.93;;;6.00;;
21843;SDS011;11084;52.482;9.108;2023-02-08T04:35:56;15.07;;;5.47;;
21843;SDS011;11084;52.482;9.108;2023-02-08T04:38:22;9.40;;;5.33;;
21843;SDS011;11084;52.482;9.108;2023-02-08T04:40:48;11.40;;;5.77;;
21843;SDS011;11084;52.482;9.108;2023-02-08T04:43:14;14.70;;;4.83;;
21843;SDS011;11084;52.482;9.108;2023-02-08T04:45:40;8.37;;;5.30;;
21843;SDS011;11084;52.482;9.108;2023-02-08T04:48:06;9.70;;;5.40;;
21843;SDS011;11084;52.482;9.108;2023-02-08T04:50:33;8.87;;;5.07;;
21843;SDS011;11084;52.482;9.108;2023-02-08T04:52:59;19.20;;;6.60;;
21843;SDS011;11084;52.482;9.108;2023-02-08T04:55:25;13.30;;;4.67;;
21843;SDS011;11084;52.482;9.108;2023-02-08T04:57:53;13.13;;;6.40;;
21843;SDS011;11084;52.482;9.108;2023-02-08T05:00:19;10.43;;;5.03;;
21843;SDS011;11084;52.482;9.108;2023-02-08T05:02:45;9.43;;;4.93;;
21843;SDS011;11084;52.482;9.108;2023-02-08T05:05:11;12.27;;;5.63;;
21843;SDS011;11084;52.482;9.108;2023-02-08T05:07:36;15.63;;;6.70;;
21843;SDS011;11084;52.482;9.108;2023-02-08T05:10:03;15.23;;;7.33;;
21843;SDS011;11084;52.482;9.108;2023-02-08T05:12:30;10.40;;;5.20;;
21843;SDS011;11084;52.482;9.108;2023-02-08T05:14:55;13.07;;;5.53;;
21843;SDS011;11084;52.482;9.108;2023-02-08T05:17:21;16.67;;;6.50;;
21843;SDS011;11084;52.482;9.108;2023-02-08T05:19:47;12.37;;;5.77;;
21843;SDS011;11084;52.482;9.108;2023-02-08T05:22:13;11.57;;;5.70;;
21843;SDS011;11084;52.482;9.108;2023-02-08T05:24:39;9.73;;;5.50;;
21843;SDS011;11084;52.482;9.108;2023-02-08T05:27:05;11.67;;;6.50;;
21843;SDS011;11084;52.482;9.108;2023-02-08T05:29:31;9.83;;;5.23;;
21843;SDS011;11084;52.482;9.108;2023-02-08T05:31:57;13.23;;;5.37;;
21843;SDS011;11084;52.482;9.108;2023-02-08T05:34:24;13.20;;;6.07;;
21843;SDS011;11084;52.482;9.108;2023-02-08T05:36:50;8.83;;;5.37;;
21843;SDS011;11084;52.482;9.108;2023-02-08T05:39:16;12.43;;;5.77;;
21843;SDS011;11084;52.482;9.108;2023-02-08T05:41:42;11.83;;;5.97;;
21843;SDS011;11084;52.482;9.108;2023-02-08T05:44:08;14.07;;;4.63;;
21843;SDS011;11084;52.482;9.108;2023-02-08T05:46:34;11.40;;;5.23;;
21843;SDS011;11084;52.482;9.108;2023-02-08T05:49:00;7.60;;;5.00;;
21843;SDS011;11084;52.482;9.108;2023-02-08T05:51:26;9.53;;;4.90;;
21843;SDS011;11084;52.482;9.108;2023-02-08T05:53:52;7.90;;;4.37;;
21843;SDS011;11084;52.482;9.108;2023-02-08T05:56:18;9.53;;;5.53;;
21843;SDS011;11084;52.482;9.108;2023-02-08T05:58:44;7.90;;;4.20;;
21843;SDS011;11084;52.482;9.108;2023-02-08T06:01:10;11.70;;;6.73;;
21843;SDS011;11084;52.482;9.108;2023-02-08T06:03:38;10.10;;;5.80;;
21843;SDS011;11084;52.482;9.108;2023-02-08T06:06:05;14.60;;;6.63;;
21843;SDS011;11084;52.482;9.108;2023-02-08T06:08:34;7.07;;;3.97;;
21843;SDS011;11084;52.482;9.108;2023-02-08T06:11:01;8.63;;;5.13;;
21843;SDS011;11084;52.482;9.108;2023-02-08T06:13:27;9.53;;;4.80;;
21843;SDS011;11084;52.482;9.108;2023-02-08T06:15:53;15.47;;;5.10;;
21843;SDS011;11084;52.482;9.108;2023-02-08T06:18:20;8.03;;;4.70;;
21843;SDS011;11084;52.482;9.108;2023-02-08T06:20:46;8.47;;;4.90;;
21843;SDS011;11084;52.482;9.108;2023-02-08T06:23:12;10.97;;;5.77;;
21843;SDS011;11084;52.482;9.108;2023-02-08T06:25:38;13.07;;;6.43;;
21843;SDS011;11084;52.482;9.108;2023-02-08T06:28:04;13.90;;;5.47;;
21843;SDS011;11084;52.482;9.108;2023-02-08T06:30:31;12.37;;;5.63;;
21843;SDS011;11084;52.482;9.108;2023-02-08T06:32:56;9.97;;;4.70;;
21843;SDS011;11084;52.482;9.108;2023-02-08T06:35:22;17.30;;;7.30;;
21843;SDS011;11084;52.482;9.108;2023-02-08T06:37:49;17.33;;;6.70;;
21843;SDS011;11084;52.482;9.108;2023-02-08T06:40:15;16.77;;;5.80;;
21843;SDS011;11084;52.482;9.108;2023-02-08T06:42:41;10.80;;;6.03;;
21843;SDS011;11084;52.482;9.108;2023-02-08T06:45:07;13.80;;;7.03;;
21843;SDS011;11084;52.482;9.108;2023-02-08T06:47:33;11.40;;;6.53;;
21843;SDS011;11084;52.482;9.108;2023-02-08T06:49:59;17.63;;;7.97;;
21843;SDS011;11084;52.482;9.108;2023-02-08T06:52:25;18.23;;;7.50;;
21843;SDS011;11084;52.482;9.108;2023-02-08T06:54:51;16.73;;;7.47;;
21843;SDS011;11084;52.482;9.108;2023-02-08T06:57:17;20.77;;;6.97;;
21843;SDS011;11084;52.482;9.108;2023-02-08T06:59:44;15.73;;;7.23;;
21843;SDS011;11084;52.482;9.108;2023-02-08T07:02:11;20.87;;;8.00;;
21843;SDS011;11084;52.482;9.108;2023-02-08T07:04:42;19.37;;;7.27;;
21843;SDS011;11084;52.482;9.108;2023-02-08T07:07:10;17.60;;;7.40;;
21843;SDS011;11084;52.482;9.108;2023-02-08T07:09:37;14.23;;;7.37;;
21843;SDS011;11084;52.482;9.108;2023-02-08T07:12:04;15.30;;;7.30;;
21843;SDS011;11084;52.482;9.108;2023-02-08T07:14:34;19.43;;;9.83;;
21843;SDS011;11084;52.482;9.108;2023-02-08T07:17:04;27.97;;;11.77;;
21843;SDS011;11084;52.482;9.108;2023-02-08T07:19:33;33.47;;;13.67;;
21843;SDS011;11084;52.482;9.108;2023-02-08T07:22:00;29.00;;;12.87;;
21843;SDS011;11084;52.482;9.108;2023-02-08T07:24:35;30.10;;;12.93;;
21843;SDS011;11084;52.482;9.108;2023-02-08T07:27:04;28.57;;;13.20;;
21843;SDS011;11084;52.482;9.108;2023-02-08T07:29:32;32.37;;;14.53;;
21843;SDS011;11084;52.482;9.108;2023-02-08T07:31:59;26.83;;;13.53;;
21843;SDS011;11084;52.482;9.108;2023-02-08T07:34:27;22.57;;;11.20;;
21843;SDS011;11084;52.482;9.108;2023-02-08T07:36:55;25.87;;;11.87;;
21843;SDS011;11084;52.482;9.108;2023-02-08T07:39:21;23.03;;;11.00;;
21843;SDS011;11084;52.482;9.108;2023-02-08T07:41:47;20.53;;;10.83;;
21843;SDS011;11084;52.482;9.108;2023-02-08T07:44:13;26.27;;;12.23;;
21843;SDS011;11084;52.482;9.108;2023-02-08T07:46:39;20.97;;;10.07;;
21843;SDS011;11084;52.482;9.108;2023-02-08T07:49:06;20.70;;;11.27;;
21843;SDS011;11084;52.482;9.108;2023-02-08T07:51:32;20.77;;;10.10;;
21843;SDS011;11084;52.482;9.108;2023-02-08T07:53:58;20.20;;;10.77;;
21843;SDS011;11084;52.482;9.108;2023-02-08T07:56:24;20.17;;;9.17;;
21843;SDS011;11084;52.482;9.108;2023-02-08T07:58:50;22.83;;;10.47;;
21843;SDS011;11084;52.482;9.108;2023-02-08T08:01:16;19.77;;;8.87;;
21843;SDS011;11084;52.482;9.108;2023-02-08T08:03:42;26.73;;;10.67;;
21843;SDS011;11084;52.482;9.108;2023-02-08T08:06:08;25.57;;;10.87;;
21843;SDS011;11084;52.482;9.108;2023-02-08T08:08:34;18.77;;;10.60;;
21843;SDS011;11084;52.482;9.108;2023-02-08T08:11:00;21.27;;;10.40;;
21843;SDS011;11084;52.482;9.108;2023-02-08T08:13:26;21.33;;;10.17;;
21843;SDS011;11084;52.482;9.108;2023-02-08T08:15:53;25.10;;;9.77;;
21843;SDS011;11084;52.482;9.108;2023-02-08T08:18:19;19.57;;;10.27;;
21843;SDS011;11084;52.482;9.108;2023-02-08T08:20:45;20.13;;;9.60;;
21843;SDS011;11084;52.482;9.108;2023-02-08T08:23:11;20.83;;;10.00;;
21843;SDS011;11084;52.482;9.108;2023-02-08T08:25:37;20.83;;;9.30;;
21843;SDS011;11084;52.482;9.108;2023-02-08T08:28:04;26.10;;;10.13;;
21843;SDS011;11084;52.482;9.108;2023-02-08T08:30:30;18.20;;;9.07;;
21843;SDS011;11084;52.482;9.108;2023-02-08T08:32:56;19.00;;;9.10;;
21843;SDS011;11084;52.482;9.108;2023-02-08T08:35:23;20.90;;;9.60;;
21843;SDS011;11084;52.482;9.108;2023-02-08T08:37:49;15.27;;;8.53;;
21843;SDS011;11084;52.482;9.108;2023-02-08T08:40:14;27.53;;;9.03;;
21843;SDS011;11084;52.482;9.108;2023-02-08T08:42:41;19.77;;;9.57;;
21843;SDS011;11084;52.482;9.108;2023-02-08T08:45:07;22.27;;;9.87;;
21843;SDS011;11084;52.482;9.108;2023-02-08T08:47:34;19.10;;;9.00;;
21843;SDS011;11084;52.482;9.108;2023-02-08T08:50:00;22.60;;;9.33;;
21843;SDS011;11084;52.482;9.108;2023-02-08T08:52:26;19.50;;;9.20;;
21843;SDS011;11084;52.482;9.108;2023-02-08T08:54:53;24.93;;;9.97;;
21843;SDS011;11084;52.482;9.108;2023-02-08T08:57:19;17.93;;;8.47;;
21843;SDS011;11084;52.482;9.108;2023-02-08T08:59:46;19.67;;;9.50;;
21843;SDS011;11084;52.482;9.108;2023-02-08T09:02:12;20.87;;;9.63;;
21843;SDS011;11084;52.482;9.108;2023-02-08T09:04:39;19.40;;;9.60;;
21843;SDS011;11084;52.482;9.108;2023-02-08T09:07:05;16.80;;;8.97;;
21843;SDS011;11084;52.482;9.108;2023-02-08T09:09:33;19.50;;;9.20;;
21843;SDS011;11084;52.482;9.108;2023-02-08T09:11:59;18.57;;;9.73;;
21843;SDS011;11084;52.482;9.108;2023-02-08T09:14:26;20.73;;;8.50;;
21843;SDS011;11084;52.482;9.108;2023-02-08T09:16:52;19.53;;;8.40;;
21843;SDS011;11084;52.482;9.108;2023-02-08T09:19:18;18.37;;;8.17;;
21843;SDS011;11084;52.482;9.108;2023-02-08T09:21:44;16.00;;;7.83;;
21843;SDS011;11084;52.482;9.108;2023-02-08T09:24:10;15.00;;;7.23;;
21843;SDS011;11084;52.482;9.108;2023-02-08T09:26:37;16.03;;;8.50;;
21843;SDS011;11084;52.482;9.108;2023-02-08T09:29:04;16.13;;;8.30;;
21843;SDS011;11084;52.482;9.108;2023-02-08T09:31:31;17.87;;;7.97;;
21843;SDS011;11084;52.482;9.108;2023-02-08T09:34:04;15.10;;;7.60;;
21843;SDS011;11084;52.482;9.108;2023-02-08T09:36:32;16.03;;;7.77;;
21843;SDS011;11084;52.482;9.108;2023-02-08T09:39:05;15.77;;;6.97;;
21843;SDS011;11084;52.482;9.108;2023-02-08T09:41:54;15.17;;;7.60;;
21843;SDS011;11084;52.482;9.108;2023-02-08T09:45:00;18.97;;;7.57;;
21843;SDS011;11084;52.482;9.108;2023-02-08T09:47:50;15.43;;;7.33;;
21843;SDS011;11084;52.482;9.108;2023-02-08T09:50:31;13.63;;;7.43;;
21843;SDS011;11084;52.482;9.108;2023-02-08T09:55:58;14.40;;;7.90;;
21843;SDS011;11084;52.482;9.108;2023-02-08T09:58:36;15.87;;;7.37;;
21843;SDS011;11084;52.482;9.108;2023-02-08T10:01:24;18.50;;;7.53;;
21843;SDS011;11084;52.482;9.108;2023-02-08T10:07:08;17.03;;;8.13;;
21843;SDS011;11084;52.482;9.108;2023-02-08T10:09:37;14.93;;;7.47;;
21843;SDS011;11084;52.482;9.108;2023-02-08T10:26:13;15.93;;;6.03;;
21843;SDS011;11084;52.482;9.108;2023-02-08T10:34:51;12.20;;;6.70;;
21843;SDS011;11084;52.482;9.108;2023-02-08T10:37:26;24.67;;;7.77;;
21843;SDS011;11084;52.482;9.108;2023-02-08T10:40:14;15.57;;;7.03;;
21843;SDS011;11084;52.482;9.108;2023-02-08T10:43:02;15.13;;;7.37;;
21843;SDS011;11084;52.482;9.108;2023-02-08T10:45:42;14.67;;;6.47;;
21843;SDS011;11084;52.482;9.108;2023-02-08T10:51:33;16.17;;;6.77;;
21843;SDS011;11084;52.482;9.108;2023-02-08T10:53:59;15.03;;;7.07;;
21843;SDS011;11084;52.482;9.108;2023-02-08T10:58:54;14.23;;;6.97;;
21843;SDS011;11084;52.482;9.108;2023-02-08T11:01:22;15.10;;;6.40;;
21843;SDS011;11084;52.482;9.108;2023-02-08T11:04:04;13.80;;;6.57;;
21843;SDS011;11084;52.482;9.108;2023-02-08T11:06:36;14.20;;;6.03;;
21843;SDS011;11084;52.482;9.108;2023-02-08T11:09:04;11.13;;;5.87;;
21843;SDS011;11084;52.482;9.108;2023-02-08T11:11:34;11.93;;;5.57;;
21843;SDS011;11084;52.482;9.108;2023-02-08T11:14:46;14.47;;;6.20;;
21843;SDS011;11084;52.482;9.108;2023-02-08T11:17:04;18.47;;;6.50;;
21843;SDS011;11084;52.482;9.108;2023-02-08T11:19:49;15.70;;;6.70;;
21843;SDS011;11084;52.482;9.108;2023-02-08T11:22:15;12.17;;;5.57;;
21843;SDS011;11084;52.482;9.108;2023-02-08T11:24:44;16.40;;;6.73;;
21843;SDS011;11084;52.482;9.108;2023-02-08T11:27:32;11.10;;;6.17;;
21843;SDS011;11084;52.482;9.108;2023-02-08T11:32:43;14.17;;;6.00;;
21843;SDS011;11084;52.482;9.108;2023-02-08T11:35:19;11.20;;;6.10;;
21843;SDS011;11084;52.482;9.108;2023-02-08T11:37:51;12.67;;;5.13;;
21843;SDS011;11084;52.482;9.108;2023-02-08T11:40:22;11.70;;;5.53;;
21843;SDS011;11084;52.482;9.108;2023-02-08T11:43:20;13.30;;;5.63;;
21843;SDS011;11084;52.482;9.108;2023-02-08T11:45:50;9.57;;;5.03;;
21843;SDS011;11084;52.482;9.108;2023-02-08T11:48:22;14.03;;;4.93;;
21843;SDS011;11084;52.482;9.108;2023-02-08T11:51:22;9.80;;;4.73;;
21843;SDS011;11084;52.482;9.108;2023-02-08T11:53:53;11.10;;;4.40;;
21843;SDS011;11084;52.482;9.108;2023-02-08T11:56:26;15.00;;;4.90;;
21843;SDS011;11084;52.482;9.108;2023-02-08T12:01:47;7.03;;;3.87;;
21843;SDS011;11084;52.482;9.108;2023-02-08T12:04:14;6.73;;;3.83;;
21843;SDS011;11084;52.482;9.108;2023-02-08T12:12:47;8.33;;;4.17;;
21843;SDS011;11084;52.482;9.108;2023-02-08T12:21:21;8.23;;;4.40;;
21843;SDS011;11084;52.482;9.108;2023-02-08T12:27:12;8.80;;;4.00;;
21843;SDS011;11084;52.482;9.108;2023-02-08T12:30:08;10.53;;;4.53;;
21843;SDS011;11084;52.482;9.108;2023-02-08T12:38:26;11.57;;;5.00;;
21843;SDS011;11084;52.482;9.108;2023-02-08T12:41:47;8.97;;;4.53;;
21843;SDS011;11084;52.482;9.108;2023-02-08T12:44:45;11.93;;;5.47;;
21843;SDS011;11084;52.482;9.108;2023-02-08T12:53:23;10.90;;;5.97;;
21843;SDS011;11084;52.482;9.108;2023-02-08T12:55:56;12.73;;;6.00;;
21843;SDS011;11084;52.482;9.108;2023-02-08T12:58:31;24.57;;;7.40;;
21843;SDS011;11084;52.482;9.108;2023-02-08T13:01:17;11.60;;;5.60;;
21843;SDS011;11084;52.482;9.108;2023-02-08T13:06:24;12.10;;;5.73;;
21843;SDS011;11084;52.482;9.108;2023-02-08T13:08:58;16.13;;;6.03;;
21843;SDS011;11084;52.482;9.108;2023-02-08T13:11:53;22.80;;;6.27;;
21843;SDS011;11084;52.482;9.108;2023-02-08T13:14:31;18.77;;;5.83;;
21843;SDS011;11084;52.482;9.108;2023-02-08T13:17:19;11.17;;;5.27;;
21843;SDS011;11084;52.482;9.108;2023-02-08T13:25:44;15.90;;;4.90;;
21843;SDS011;11084;52.482;9.108;2023-02-08T13:28:16;13.03;;;5.23;;
21843;SDS011;11084;52.482;9.108;2023-02-08T13:34:04;10.23;;;5.53;;
21843;SDS011;11084;52.482;9.108;2023-02-08T13:37:01;11.73;;;4.97;;
21843;SDS011;11084;52.482;9.108;2023-02-08T13:39:35;8.27;;;5.00;;
21843;SDS011;11084;52.482;9.108;2023-02-08T13:42:15;9.47;;;4.87;;
21843;SDS011;11084;52.482;9.108;2023-02-08T13:44:58;10.13;;;4.67;;
21843;SDS011;11084;52.482;9.108;2023-02-08T13:47:29;9.00;;;4.17;;
21843;SDS011;11084;52.482;9.108;2023-02-08T13:53:11;8.20;;;4.00;;
21843;SDS011;11084;52.482;9.108;2023-02-08T13:58:27;8.07;;;4.07;;
21843;SDS011;11084;52.482;9.108;2023-02-08T14:03:42;9.13;;;4.27;;
21843;SDS011;11084;52.482;9.108;2023-02-08T14:06:15;5.57;;;3.27;;
21843;SDS011;11084;52.482;9.108;2023-02-08T14:09:01;6.87;;;3.87;;
21843;SDS011;11084;52.482;9.108;2023-02-08T14:11:48;12.77;;;4.43;;
21843;SDS011;11084;52.482;9.108;2023-02-08T14:14:20;7.93;;;3.77;;
21843;SDS011;11084;52.482;9.108;2023-02-08T14:19:45;7.50;;;4.37;;
21843;SDS011;11084;52.482;9.108;2023-02-08T14:22:36;10.60;;;4.63;;
21843;SDS011;11084;52.482;9.108;2023-02-08T14:25:20;10.47;;;4.43;;
21843;SDS011;11084;52.482;9.108;2023-02-08T14:30:27;16.77;;;5.30;;
21843;SDS011;11084;52.482;9.108;2023-02-08T14:35:29;12.37;;;4.67;;
21843;SDS011;11084;52.482;9.108;2023-02-08T14:46:40;10.57;;;5.70;;
21843;SDS011;11084;52.482;9.108;2023-02-08T14:49:13;9.50;;;4.33;;
21843;SDS011;11084;52.482;9.108;2023-02-08T14:51:58;11.10;;;5.13;;
21843;SDS011;11084;52.482;9.108;2023-02-08T14:54:40;9.43;;;5.00;;
21843;SDS011;11084;52.482;9.108;2023-02-08T14:59:57;11.13;;;5.10;;
21843;SDS011;11084;52.482;9.108;2023-02-08T15:02:28;10.33;;;4.80;;
21843;SDS011;11084;52.482;9.108;2023-02-08T15:04:58;12.63;;;5.50;;
21843;SDS011;11084;52.482;9.108;2023-02-08T15:07:44;15.07;;;5.60;;
21843;SDS011;11084;52.482;9.108;2023-02-08T15:10:19;10.20;;;4.80;;
21843;SDS011;11084;52.482;9.108;2023-02-08T15:12:52;13.10;;;5.47;;
21843;SDS011;11084;52.482;9.108;2023-02-08T15:18:17;11.43;;;5.87;;
21843;SDS011;11084;52.482;9.108;2023-02-08T15:24:38;11.63;;;5.07;;
21843;SDS011;11084;52.482;9.108;2023-02-08T15:27:22;9.70;;;4.87;;
21843;SDS011;11084;52.482;9.108;2023-02-08T15:29:54;14.17;;;5.93;;
21843;SDS011;11084;52.482;9.108;2023-02-08T15:32:21;12.57;;;5.80;;
21843;SDS011;11084;52.482;9.108;2023-02-08T15:37:30;12.60;;;5.90;;
21843;SDS011;11084;52.482;9.108;2023-02-08T15:39:58;15.83;;;6.17;;
21843;SDS011;11084;52.482;9.108;2023-02-08T15:42:27;17.67;;;6.93;;
21843;SDS011;11084;52.482;9.108;2023-02-08T15:44:58;14.00;;;5.83;;
21843;SDS011;11084;52.482;9.108;2023-02-08T15:47:27;12.70;;;6.20;;
21843;SDS011;11084;52.482;9.108;2023-02-08T15:50:00;11.23;;;5.67;;
21843;SDS011;11084;52.482;9.108;2023-02-08T15:52:31;20.93;;;6.33;;
21843;SDS011;11084;52.482;9.108;2023-02-08T15:54:59;13.33;;;4.93;;
21843;SDS011;11084;52.482;9.108;2023-02-08T15:57:42;13.47;;;6.10;;
21843;SDS011;11084;52.482;9.108;2023-02-08T16:00:19;12.47;;;5.37;;
21843;SDS011;11084;52.482;9.108;2023-02-08T16:02:50;11.80;;;5.77;;
21843;SDS011;11084;52.482;9.108;2023-02-08T16:05:24;12.43;;;5.30;;
21843;SDS011;11084;52.482;9.108;2023-02-08T16:07:54;11.30;;;5.43;;
21843;SDS011;11084;52.482;9.108;2023-02-08T16:10:29;12.13;;;5.83;;
21843;SDS011;11084;52.482;9.108;2023-02-08T16:13:22;15.13;;;5.57;;
21843;SDS011;11084;52.482;9.108;2023-02-08T16:15:54;16.37;;;6.17;;
21843;SDS011;11084;52.482;9.108;2023-02-08T16:23:53;16.17;;;5.73;;
21843;SDS011;11084;52.482;9.108;2023-02-08T16:26:29;19.90;;;6.80;;
21843;SDS011;11084;52.482;9.108;2023-02-08T16:29:05;11.67;;;5.60;;
21843;SDS011;11084;52.482;9.108;2023-02-08T16:31:41;15.00;;;5.57;;
21843;SDS011;11084;52.482;9.108;2023-02-08T16:34:16;13.50;;;5.13;;
21843;SDS011;11084;52.482;9.108;2023-02-08T16:44:27;15.37;;;5.93;;
21843;SDS011;11084;52.482;9.108;2023-02-08T16:46:59;11.07;;;5.23;;
21843;SDS011;11084;52.482;9.108;2023-02-08T16:49:26;12.13;;;5.40;;
21843;SDS011;11084;52.482;9.108;2023-02-08T16:51:56;13.20;;;5.27;;
21843;SDS011;11084;52.482;9.108;2023-02-08T16:54:22;10.40;;;5.13;;
21843;SDS011;11084;52.482;9.108;2023-02-08T16:56:50;19.53;;;5.43;;
21843;SDS011;11084;52.482;9.108;2023-02-08T16:59:24;10.23;;;5.13;;
21843;SDS011;11084;52.482;9.108;2023-02-08T17:01:54;10.23;;;4.97;;
21843;SDS011;11084;52.482;9.108;2023-02-08T17:04:21;17.80;;;6.23;;
21843;SDS011;11084;52.482;9.108;2023-02-08T17:06:48;15.27;;;5.80;;
21843;SDS011;11084;52.482;9.108;2023-02-08T17:09:14;16.27;;;5.70;;
21843;SDS011;11084;52.482;9.108;2023-02-08T17:11:40;13.87;;;5.47;;
21843;SDS011;11084;52.482;9.108;2023-02-08T17:14:06;16.50;;;6.13;;
21843;SDS011;11084;52.482;9.108;2023-02-08T17:16:34;14.07;;;5.87;;
21843;SDS011;11084;52.482;9.108;2023-02-08T17:19:02;15.07;;;5.20;;
21843;SDS011;11084;52.482;9.108;2023-02-08T17:21:29;12.47;;;6.50;;
21843;SDS011;11084;52.482;9.108;2023-02-08T17:23:55;16.30;;;5.60;;
21843;SDS011;11084;52.482;9.108;2023-02-08T17:26:26;15.63;;;6.13;;
21843;SDS011;11084;52.482;9.108;2023-02-08T17:28:57;15.90;;;5.33;;
21843;SDS011;11084;52.482;9.108;2023-02-08T17:31:24;14.47;;;6.43;;
21843;SDS011;11084;52.482;9.108;2023-02-08T17:33:51;11.63;;;5.30;;
21843;SDS011;11084;52.482;9.108;2023-02-08T17:36:17;16.27;;;6.10;;
21843;SDS011;11084;52.482;9.108;2023-02-08T17:38:44;13.90;;;6.30;;
21843;SDS011;11084;52.482;9.108;2023-02-08T17:41:11;12.30;;;6.13;;
21843;SDS011;11084;52.482;9.108;2023-02-08T17:43:40;14.57;;;6.43;;
21843;SDS011;11084;52.482;9.108;2023-02-08T17:46:08;14.80;;;6.13;;
21843;SDS011;11084;52.482;9.108;2023-02-08T17:48:42;12.70;;;5.63;;
21843;SDS011;11084;52.482;9.108;2023-02-08T17:51:09;15.67;;;6.77;;
21843;SDS011;11084;52.482;9.108;2023-02-08T17:53:38;15.43;;;6.27;;